sensor_id;sensor_type;location;lat;lon;timestamp;pressure;altitude;pressure_sealevel;temperature
48854;BMP280;34673;52.808;17.856;2023-08-24T00:02:02;100572.69;;;20.71
48854;BMP280;34673;52.808;17.856;2023-08-24T00:04:29;100577.94;;;20.71
48854;BMP280;34673;52.808;17.856;2023-08-24T00:06:56;100566.84;;;20.65
48854;BMP280;34673;52.808;17.856;2023-08-24T00:09:24;100565.38;;;20.59
48854;BMP280;34673;52.808;17.856;2023-08-24T00:11:51;100561.88;;;20.58
48854;BMP280;34673;52.808;17.856;2023-08-24T00:14:19;100572.25;;;20.62
48854;BMP280;34673;52.808;17.856;2023-08-24T00:16:46;100574.94;;;20.60
48854;BMP280;34673;52.808;17.856;2023-08-24T00:19:13;100572.31;;;20.60
48854;BMP280;34673;52.808;17.856;2023-08-24T00:21:40;100571.56;;;20.58
48854;BMP280;34673;52.808;17.856;2023-08-24T00:24:07;100563.72;;;20.56
48854;BMP280;34673;52.808;17.856;2023-08-24T00:26:35;100575.09;;;20.57
48854;BMP280;34673;52.808;17.856;2023-08-24T00:29:02;100572.66;;;20.52
48854;BMP280;34673;52.808;17.856;2023-08-24T00:31:29;100582.22;;;20.55
48854;BMP280;34673;52.808;17.856;2023-08-24T00:33:58;100580.44;;;20.55
48854;BMP280;34673;52.808;17.856;2023-08-24T00:36:26;100564.13;;;20.47
48854;BMP280;34673;52.808;17.856;2023-08-24T00:38:53;100575.34;;;20.51
48854;BMP280;34673;52.808;17.856;2023-08-24T00:41:20;100592.78;;;20.53
48854;BMP280;34673;52.808;17.856;2023-08-24T00:43:51;100576.34;;;20.48
48854;BMP280;34673;52.808;17.856;2023-08-24T00:46:18;100580.09;;;20.43
48854;BMP280;34673;52.808;17.856;2023-08-24T00:48:46;100581.03;;;20.42
48854;BMP280;34673;52.808;17.856;2023-08-24T00:51:14;100587.69;;;20.49
48854;BMP280;34673;52.808;17.856;2023-08-24T00:53:41;100588.56;;;20.49
48854;BMP280;34673;52.808;17.856;2023-08-24T00:56:08;100593.81;;;20.49
48854;BMP280;34673;52.808;17.856;2023-08-24T00:58:35;100588.63;;;20.48
48854;BMP280;34673;52.808;17.856;2023-08-24T01:01:04;100583.38;;;20.48
48854;BMP280;34673;52.808;17.856;2023-08-24T01:03:32;100569.22;;;20.31
48854;BMP280;34673;52.808;17.856;2023-08-24T01:06:00;100589.69;;;20.44
48854;BMP280;34673;52.808;17.856;2023-08-24T01:08:27;100590.56;;;20.44
48854;BMP280;34673;52.808;17.856;2023-08-24T01:11:04;100595.72;;;20.46
48854;BMP280;34673;52.808;17.856;2023-08-24T01:13:50;100586.44;;;20.39
48854;BMP280;34673;52.808;17.856;2023-08-24T01:16:27;100583.84;;;20.37
48854;BMP280;34673;52.808;17.856;2023-08-24T01:18:56;100594.31;;;20.39
48854;BMP280;34673;52.808;17.856;2023-08-24T01:21:25;100595.22;;;20.37
48854;BMP280;34673;52.808;17.856;2023-08-24T01:26:39;100587.63;;;20.31
48854;BMP280;34673;52.808;17.856;2023-08-24T01:29:07;100599.06;;;20.30
48854;BMP280;34673;52.808;17.856;2023-08-24T01:31:35;100592.06;;;20.29
48854;BMP280;34673;52.808;17.856;2023-08-24T01:34:02;100588.56;;;20.30
48854;BMP280;34673;52.808;17.856;2023-08-24T01:36:29;100588.56;;;20.30
48854;BMP280;34673;52.808;17.856;2023-08-24T01:39:35;100596.44;;;20.30
48854;BMP280;34673;52.808;17.856;2023-08-24T01:42:03;100587.81;;;20.27
48854;BMP280;34673;52.808;17.856;2023-08-24T01:44:35;100595.78;;;20.25
48854;BMP280;34673;52.808;17.856;2023-08-24T01:47:04;100594.06;;;20.24
48854;BMP280;34673;52.808;17.856;2023-08-24T01:49:33;100590.59;;;20.24
48854;BMP280;34673;52.808;17.856;2023-08-24T01:52:02;100591.50;;;20.23
48854;BMP280;34673;52.808;17.856;2023-08-24T01:54:31;100590.66;;;20.22
48854;BMP280;34673;52.808;17.856;2023-08-24T01:56:58;100585.53;;;20.19
48854;BMP280;34673;52.808;17.856;2023-08-24T01:59:26;100563.47;;;20.03
48854;BMP280;34673;52.808;17.856;2023-08-24T02:01:54;100589.13;;;20.17
48854;BMP280;34673;52.808;17.856;2023-08-24T02:04:22;100583.97;;;20.15
48854;BMP280;34673;52.808;17.856;2023-08-24T02:06:49;100575.28;;;20.13
48854;BMP280;34673;52.808;17.856;2023-08-24T02:09:17;100571.38;;;20.03
48854;BMP280;34673;52.808;17.856;2023-08-24T02:11:44;100576.69;;;20.01
48854;BMP280;34673;52.808;17.856;2023-08-24T02:14:11;100582.94;;;19.99
48854;BMP280;34673;52.808;17.856;2023-08-24T02:16:39;100588.19;;;19.99
48854;BMP280;34673;52.808;17.856;2023-08-24T02:19:06;100573.75;;;19.88
48854;BMP280;34673;52.808;17.856;2023-08-24T02:21:35;100584.38;;;19.85
48854;BMP280;34673;52.808;17.856;2023-08-24T02:24:04;100547.84;;;19.59
48854;BMP280;34673;52.808;17.856;2023-08-24T02:26:32;100584.13;;;19.71
48854;BMP280;34673;52.808;17.856;2023-08-24T02:28:59;100579.22;;;19.62
48854;BMP280;34673;52.808;17.856;2023-08-24T02:31:26;100552.16;;;19.39
48854;BMP280;34673;52.808;17.856;2023-08-24T02:33:54;100580.06;;;19.42
48854;BMP280;34673;52.808;17.856;2023-08-24T02:36:21;100579.38;;;19.37
48854;BMP280;34673;52.808;17.856;2023-08-24T02:38:48;100582.19;;;19.32
48854;BMP280;34673;52.808;17.856;2023-08-24T02:41:17;100575.50;;;19.25
48854;BMP280;34673;52.808;17.856;2023-08-24T02:43:44;100545.75;;;19.04
48854;BMP280;34673;52.808;17.856;2023-08-24T02:46:13;100575.97;;;19.13
48854;BMP280;34673;52.808;17.856;2023-08-24T02:48:40;100578.59;;;19.13
48854;BMP280;34673;52.808;17.856;2023-08-24T02:51:08;100580.31;;;19.14
48854;BMP280;34673;52.808;17.856;2023-08-24T02:53:36;100578.56;;;19.14
48854;BMP280;34673;52.808;17.856;2023-08-24T02:56:03;100572.56;;;19.11
48854;BMP280;34673;52.808;17.856;2023-08-24T02:58:31;100577.81;;;19.11
48854;BMP280;34673;52.808;17.856;2023-08-24T03:00:58;100571.13;;;19.03
48854;BMP280;34673;52.808;17.856;2023-08-24T03:03:25;100571.38;;;18.97
48854;BMP280;34673;52.808;17.856;2023-08-24T03:05:54;100576.69;;;18.94
48854;BMP280;34673;52.808;17.856;2023-08-24T03:08:22;100569.38;;;18.80
48854;BMP280;34673;52.808;17.856;2023-08-24T03:10:49;100572.06;;;18.79
48854;BMP280;34673;52.808;17.856;2023-08-24T03:13:16;100560.44;;;18.63
48854;BMP280;34673;52.808;17.856;2023-08-24T03:15:44;100577.84;;;18.64
48854;BMP280;34673;52.808;17.856;2023-08-24T03:18:12;100584.91;;;18.61
48854;BMP280;34673;52.808;17.856;2023-08-24T03:20:40;100584.03;;;18.63
48854;BMP280;34673;52.808;17.856;2023-08-24T03:23:07;100560.88;;;18.50
48854;BMP280;34673;52.808;17.856;2023-08-24T03:25:36;100585.72;;;18.64
48854;BMP280;34673;52.808;17.856;2023-08-24T03:28:04;100590.91;;;18.65
48854;BMP280;34673;52.808;17.856;2023-08-24T03:30:35;100587.50;;;18.63
48854;BMP280;34673;52.808;17.856;2023-08-24T03:33:04;100584.91;;;18.61
48854;BMP280;34673;52.808;17.856;2023-08-24T03:35:32;100581.69;;;18.55
48854;BMP280;34673;52.808;17.856;2023-08-24T03:38:00;100586.13;;;18.53
48854;BMP280;34673;52.808;17.856;2023-08-24T03:40:27;100583.56;;;18.51
48854;BMP280;34673;52.808;17.856;2023-08-24T03:42:54;100587.19;;;18.47
48854;BMP280;34673;52.808;17.856;2023-08-24T03:45:22;100585.50;;;18.46
48854;BMP280;34673;52.808;17.856;2023-08-24T03:47:50;100580.38;;;18.43
48854;BMP280;34673;52.808;17.856;2023-08-24T03:50:18;100587.47;;;18.39
48854;BMP280;34673;52.808;17.856;2023-08-24T03:52:46;100580.72;;;18.34
48854;BMP280;34673;52.808;17.856;2023-08-24T03:55:13;100587.56;;;18.38
48854;BMP280;34673;52.808;17.856;2023-08-24T03:57:42;100584.13;;;18.36
48854;BMP280;34673;52.808;17.856;2023-08-24T04:00:09;100565.34;;;18.25
48854;BMP280;34673;52.808;17.856;2023-08-24T04:02:41;100577.59;;;18.24
48854;BMP280;34673;52.808;17.856;2023-08-24T04:05:14;100582.97;;;18.20
48854;BMP280;34673;52.808;17.856;2023-08-24T04:07:41;100577.84;;;18.16
48854;BMP280;34673;52.808;17.856;2023-08-24T04:10:09;100594.38;;;18.19
48854;BMP280;34673;52.808;17.856;2023-08-24T04:12:36;100591.00;;;18.15
48854;BMP280;34673;52.808;17.856;2023-08-24T04:15:04;100586.56;;;18.17
48854;BMP280;34673;52.808;17.856;2023-08-24T04:17:32;100575.25;;;18.16
48854;BMP280;34673;52.808;17.856;2023-08-24T04:19:59;100588.84;;;18.26
48854;BMP280;34673;52.808;17.856;2023-08-24T04:22:27;100592.34;;;18.27
48854;BMP280;34673;52.808;17.856;2023-08-24T04:24:54;100594.19;;;18.23
48854;BMP280;34673;52.808;17.856;2023-08-24T04:27:21;100594.94;;;18.27
48854;BMP280;34673;52.808;17.856;2023-08-24T04:29:48;100591.28;;;18.31
48854;BMP280;34673;52.808;17.856;2023-08-24T04:32:16;100597.91;;;18.41
48854;BMP280;34673;52.808;17.856;2023-08-24T04:34:43;100597.56;;;18.50
48854;BMP280;34673;52.808;17.856;2023-08-24T04:37:10;100596.56;;;18.54
48854;BMP280;34673;52.808;17.856;2023-08-24T04:39:37;100590.28;;;18.58
48854;BMP280;34673;52.808;17.856;2023-08-24T04:42:05;100596.38;;;18.59
48854;BMP280;34673;52.808;17.856;2023-08-24T04:44:33;100595.19;;;18.68
48854;BMP280;34673;52.808;17.856;2023-08-24T04:47:00;100569.31;;;18.58
48854;BMP280;34673;52.808;17.856;2023-08-24T04:49:29;100595.88;;;18.73
48854;BMP280;34673;52.808;17.856;2023-08-24T04:51:56;100596.56;;;18.78
48854;BMP280;34673;52.808;17.856;2023-08-24T04:54:23;100591.09;;;18.84
48854;BMP280;34673;52.808;17.856;2023-08-24T04:56:51;100596.34;;;18.84
48854;BMP280;34673;52.808;17.856;2023-08-24T04:59:18;100582.31;;;18.85
48854;BMP280;34673;52.808;17.856;2023-08-24T05:01:45;100588.78;;;18.98
48854;BMP280;34673;52.808;17.856;2023-08-24T05:04:12;100599.03;;;19.04
48854;BMP280;34673;52.808;17.856;2023-08-24T05:06:39;100595.72;;;18.99
48854;BMP280;34673;52.808;17.856;2023-08-24T05:09:06;100592.34;;;18.97
48854;BMP280;34673;52.808;17.856;2023-08-24T05:11:35;100607.94;;;19.00
48854;BMP280;34673;52.808;17.856;2023-08-24T05:14:02;100602.69;;;19.00
48854;BMP280;34673;52.808;17.856;2023-08-24T05:16:29;100599.94;;;19.03
48854;BMP280;34673;52.808;17.856;2023-08-24T05:18:56;100611.13;;;19.09
48854;BMP280;34673;52.808;17.856;2023-08-24T05:21:23;100600.13;;;18.99
48854;BMP280;34673;52.808;17.856;2023-08-24T05:23:50;100612.81;;;19.10
48854;BMP280;34673;52.808;17.856;2023-08-24T05:26:18;100619.28;;;19.23
48854;BMP280;34673;52.808;17.856;2023-08-24T05:28:49;100620.97;;;19.24
48854;BMP280;34673;52.808;17.856;2023-08-24T05:31:17;100615.75;;;19.24
48854;BMP280;34673;52.808;17.856;2023-08-24T05:33:47;100624.41;;;19.26
48854;BMP280;34673;52.808;17.856;2023-08-24T05:36:14;100632.94;;;19.31
48854;BMP280;34673;52.808;17.856;2023-08-24T05:38:41;100629.19;;;19.38
48854;BMP280;34673;52.808;17.856;2023-08-24T05:41:16;100634.84;;;19.49
48854;BMP280;34673;52.808;17.856;2023-08-24T05:43:43;100629.34;;;19.56
48854;BMP280;34673;52.808;17.856;2023-08-24T05:46:11;100636.94;;;19.62
48854;BMP280;34673;52.808;17.856;2023-08-24T05:48:38;100631.50;;;19.68
48854;BMP280;34673;52.808;17.856;2023-08-24T05:51:05;100631.25;;;19.74
48854;BMP280;34673;52.808;17.856;2023-08-24T05:53:34;100634.53;;;19.79
48854;BMP280;34673;52.808;17.856;2023-08-24T05:56:01;100630.00;;;19.83
48854;BMP280;34673;52.808;17.856;2023-08-24T05:58:28;100627.19;;;19.87
48854;BMP280;34673;52.808;17.856;2023-08-24T06:00:57;100635.81;;;19.89
48854;BMP280;34673;52.808;17.856;2023-08-24T06:03:25;100622.66;;;19.91
48854;BMP280;34673;52.808;17.856;2023-08-24T06:05:52;100619.09;;;19.92
48854;BMP280;34673;52.808;17.856;2023-08-24T06:08:20;100626.72;;;19.98
48854;BMP280;34673;52.808;17.856;2023-08-24T06:10:47;100621.38;;;20.00
48854;BMP280;34673;52.808;17.856;2023-08-24T06:13:14;100622.00;;;20.06
48854;BMP280;34673;52.808;17.856;2023-08-24T06:15:42;100618.78;;;20.20
48854;BMP280;34673;52.808;17.856;2023-08-24T06:18:09;100621.63;;;20.34
48854;BMP280;34673;52.808;17.856;2023-08-24T06:20:36;100612.41;;;20.45
48854;BMP280;34673;52.808;17.856;2023-08-24T06:23:03;100617.00;;;20.60
48854;BMP280;34673;52.808;17.856;2023-08-24T06:25:31;100620.91;;;20.70
48854;BMP280;34673;52.808;17.856;2023-08-24T06:27:59;100619.44;;;20.84
48854;BMP280;34673;52.808;17.856;2023-08-24T06:30:26;100610.13;;;20.95
48854;BMP280;34673;52.808;17.856;2023-08-24T06:32:54;100611.16;;;21.10
48854;BMP280;34673;52.808;17.856;2023-08-24T06:35:21;100613.84;;;21.28
48854;BMP280;34673;52.808;17.856;2023-08-24T06:37:48;100613.28;;;21.40
48854;BMP280;34673;52.808;17.856;2023-08-24T06:40:16;100604.00;;;21.50
48854;BMP280;34673;52.808;17.856;2023-08-24T06:42:44;100617.19;;;21.67
48854;BMP280;34673;52.808;17.856;2023-08-24T06:45:11;100603.47;;;21.78
48854;BMP280;34673;52.808;17.856;2023-08-24T06:47:39;100598.44;;;21.91
48854;BMP280;34673;52.808;17.856;2023-08-24T06:50:06;100599.50;;;22.04
48854;BMP280;34673;52.808;17.856;2023-08-24T06:52:34;100603.34;;;22.14
48854;BMP280;34673;52.808;17.856;2023-08-24T06:55:01;100605.56;;;22.24
48854;BMP280;34673;52.808;17.856;2023-08-24T06:57:29;100590.97;;;22.34
48854;BMP280;34673;52.808;17.856;2023-08-24T06:59:56;100596.84;;;22.55
48854;BMP280;34673;52.808;17.856;2023-08-24T07:02:23;100599.31;;;22.74
48854;BMP280;34673;52.808;17.856;2023-08-24T07:04:51;100606.81;;;22.82
48854;BMP280;34673;52.808;17.856;2023-08-24T07:07:18;100609.22;;;22.86
48854;BMP280;34673;52.808;17.856;2023-08-24T07:09:45;100594.41;;;22.84
48854;BMP280;34673;52.808;17.856;2023-08-24T07:12:12;100601.91;;;22.91
48854;BMP280;34673;52.808;17.856;2023-08-24T07:14:39;100603.28;;;22.98
48854;BMP280;34673;52.808;17.856;2023-08-24T07:17:06;100602.97;;;23.05
48854;BMP280;34673;52.808;17.856;2023-08-24T07:19:34;100604.47;;;23.09
48854;BMP280;34673;52.808;17.856;2023-08-24T07:22:01;100618.75;;;23.20
48854;BMP280;34673;52.808;17.856;2023-08-24T07:24:28;100621.13;;;23.25
48854;BMP280;34673;52.808;17.856;2023-08-24T07:27:11;100614.34;;;23.21
48854;BMP280;34673;52.808;17.856;2023-08-24T07:29:39;100613.16;;;23.27
48854;BMP280;34673;52.808;17.856;2023-08-24T07:32:06;100615.69;;;23.28
48854;BMP280;34673;52.808;17.856;2023-08-24T07:34:33;100618.56;;;23.39
48854;BMP280;34673;52.808;17.856;2023-08-24T07:37:01;100611.78;;;23.65
48854;BMP280;34673;52.808;17.856;2023-08-24T07:39:28;100606.88;;;23.89
48854;BMP280;34673;52.808;17.856;2023-08-24T07:41:55;100615.78;;;24.17
48854;BMP280;34673;52.808;17.856;2023-08-24T07:44:23;100615.41;;;24.38
48854;BMP280;34673;52.808;17.856;2023-08-24T07:46:50;100625.63;;;24.58
48854;BMP280;34673;52.808;17.856;2023-08-24T07:49:18;100619.38;;;24.73
48854;BMP280;34673;52.808;17.856;2023-08-24T07:51:45;100621.72;;;24.92
48854;BMP280;34673;52.808;17.856;2023-08-24T07:54:14;100613.66;;;25.08
48854;BMP280;34673;52.808;17.856;2023-08-24T07:56:42;100620.03;;;25.33
48854;BMP280;34673;52.808;17.856;2023-08-24T07:59:09;100618.06;;;25.49
48854;BMP280;34673;52.808;17.856;2023-08-24T08:01:36;100614.59;;;25.61
48854;BMP280;34673;52.808;17.856;2023-08-24T08:04:04;100626.38;;;25.83
48854;BMP280;34673;52.808;17.856;2023-08-24T08:06:31;100618.03;;;25.89
48854;BMP280;34673;52.808;17.856;2023-08-24T08:08:58;100625.19;;;26.01
48854;BMP280;34673;52.808;17.856;2023-08-24T08:11:26;100627.50;;;26.19
48854;BMP280;34673;52.808;17.856;2023-08-24T08:13:53;100628.13;;;26.35
48854;BMP280;34673;52.808;17.856;2023-08-24T08:16:20;100622.72;;;26.49
48854;BMP280;34673;52.808;17.856;2023-08-24T08:18:47;100618.59;;;26.58
48854;BMP280;34673;52.808;17.856;2023-08-24T08:21:16;100625.44;;;26.73
48854;BMP280;34673;52.808;17.856;2023-08-24T08:23:47;100628.16;;;26.61
48854;BMP280;34673;52.808;17.856;2023-08-24T08:26:16;100628.69;;;26.27
48854;BMP280;34673;52.808;17.856;2023-08-24T08:28:43;100638.97;;;26.06
48854;BMP280;34673;52.808;17.856;2023-08-24T08:31:11;100636.22;;;25.95
48854;BMP280;34673;52.808;17.856;2023-08-24T08:33:39;100638.31;;;25.90
48854;BMP280;34673;52.808;17.856;2023-08-24T08:36:06;100639.25;;;25.89
48854;BMP280;34673;52.808;17.856;2023-08-24T08:38:33;100626.00;;;25.89
48854;BMP280;34673;52.808;17.856;2023-08-24T08:41:04;100633.44;;;25.97
48854;BMP280;34673;52.808;17.856;2023-08-24T08:43:31;100637.72;;;26.25
48854;BMP280;34673;52.808;17.856;2023-08-24T08:45:59;100636.88;;;26.63
48854;BMP280;34673;52.808;17.856;2023-08-24T08:48:30;100628.50;;;26.93
48854;BMP280;34673;52.808;17.856;2023-08-24T08:50:58;100632.81;;;27.07
48854;BMP280;34673;52.808;17.856;2023-08-24T08:53:26;100635.88;;;27.01
48854;BMP280;34673;52.808;17.856;2023-08-24T08:55:54;100637.25;;;26.82
48854;BMP280;34673;52.808;17.856;2023-08-24T08:58:22;100633.16;;;26.52
48854;BMP280;34673;52.808;17.856;2023-08-24T09:00:50;100645.97;;;26.33
48854;BMP280;34673;52.808;17.856;2023-08-24T09:03:18;100640.38;;;26.25
48854;BMP280;34673;52.808;17.856;2023-08-24T09:05:46;100638.44;;;26.27
48854;BMP280;34673;52.808;17.856;2023-08-24T09:08:16;100642.38;;;26.34
48854;BMP280;34673;52.808;17.856;2023-08-24T09:10:44;100646.69;;;26.35
48854;BMP280;34673;52.808;17.856;2023-08-24T09:13:12;100642.81;;;26.28
48854;BMP280;34673;52.808;17.856;2023-08-24T09:15:39;100647.56;;;26.23
48854;BMP280;34673;52.808;17.856;2023-08-24T09:18:07;100646.16;;;26.30
48854;BMP280;34673;52.808;17.856;2023-08-24T09:20:35;100643.56;;;26.56
48854;BMP280;34673;52.808;17.856;2023-08-24T09:23:03;100635.88;;;27.01
48854;BMP280;34673;52.808;17.856;2023-08-24T09:25:30;100624.09;;;27.42
48854;BMP280;34673;52.808;17.856;2023-08-24T09:28:02;100618.78;;;27.77
48854;BMP280;34673;52.808;17.856;2023-08-24T09:30:35;100624.09;;;28.12
48854;BMP280;34673;52.808;17.856;2023-08-24T09:33:12;100618.75;;;28.12
48854;BMP280;34673;52.808;17.856;2023-08-24T09:35:40;100622.38;;;28.11
48854;BMP280;34673;52.808;17.856;2023-08-24T09:38:17;100620.59;;;28.23
48854;BMP280;34673;52.808;17.856;2023-08-24T09:40:46;100619.03;;;28.32
48854;BMP280;34673;52.808;17.856;2023-08-24T09:43:18;100620.44;;;28.36
48854;BMP280;34673;52.808;17.856;2023-08-24T09:45:57;100627.88;;;28.43
48854;BMP280;34673;52.808;17.856;2023-08-24T09:48:26;100615.66;;;28.52
48854;BMP280;34673;52.808;17.856;2023-08-24T09:50:57;100618.53;;;28.60
48854;BMP280;34673;52.808;17.856;2023-08-24T09:53:24;100613.09;;;28.73
48854;BMP280;34673;52.808;17.856;2023-08-24T09:55:59;100612.72;;;28.89
48854;BMP280;34673;52.808;17.856;2023-08-24T09:58:27;100602.53;;;29.05
48854;BMP280;34673;52.808;17.856;2023-08-24T10:00:55;100606.84;;;29.17
48854;BMP280;34673;52.808;17.856;2023-08-24T10:03:26;100605.84;;;29.30
48854;BMP280;34673;52.808;17.856;2023-08-24T10:05:55;100600.56;;;29.39
48854;BMP280;34673;52.808;17.856;2023-08-24T10:08:39;100607.66;;;29.50
48854;BMP280;34673;52.808;17.856;2023-08-24T10:11:10;100598.84;;;29.50
48854;BMP280;34673;52.808;17.856;2023-08-24T10:14:27;100591.94;;;29.47
48854;BMP280;34673;52.808;17.856;2023-08-24T10:16:56;100577.50;;;29.50
48854;BMP280;34673;52.808;17.856;2023-08-24T10:19:24;100588.09;;;29.61
48854;BMP280;34673;52.808;17.856;2023-08-24T10:21:53;100589.91;;;29.72
48854;BMP280;34673;52.808;17.856;2023-08-24T10:24:23;100583.16;;;29.68
48854;BMP280;34673;52.808;17.856;2023-08-24T10:26:52;100573.91;;;29.72
48854;BMP280;34673;52.808;17.856;2023-08-24T10:29:21;100575.88;;;29.70
48854;BMP280;34673;52.808;17.856;2023-08-24T10:31:49;100555.81;;;29.54
48854;BMP280;34673;52.808;17.856;2023-08-24T10:34:17;100577.28;;;29.74
48854;BMP280;34673;52.808;17.856;2023-08-24T10:36:47;100562.44;;;29.60
48854;BMP280;34673;52.808;17.856;2023-08-24T10:39:15;100568.56;;;29.72
48854;BMP280;34673;52.808;17.856;2023-08-24T10:41:47;100560.75;;;29.80
48854;BMP280;34673;52.808;17.856;2023-08-24T10:44:23;100564.97;;;29.82
48854;BMP280;34673;52.808;17.856;2023-08-24T10:47:23;100563.59;;;29.88
48854;BMP280;34673;52.808;17.856;2023-08-24T10:52:22;100559.19;;;29.98
48854;BMP280;34673;52.808;17.856;2023-08-24T10:54:53;100551.63;;;30.03
48854;BMP280;34673;52.808;17.856;2023-08-24T10:57:25;100548.22;;;30.01
48854;BMP280;34673;52.808;17.856;2023-08-24T11:00:11;100527.19;;;29.56
48854;BMP280;34673;52.808;17.856;2023-08-24T11:02:45;100549.09;;;29.39
48854;BMP280;34673;52.808;17.856;2023-08-24T11:05:24;100546.03;;;29.23
48854;BMP280;34673;52.808;17.856;2023-08-24T11:08:05;100550.19;;;29.15
48854;BMP280;34673;52.808;17.856;2023-08-24T11:13:17;100525.56;;;28.91
48854;BMP280;34673;52.808;17.856;2023-08-24T11:15:50;100536.22;;;29.23
48854;BMP280;34673;52.808;17.856;2023-08-24T11:18:23;100536.06;;;29.04
48854;BMP280;34673;52.808;17.856;2023-08-24T11:21:00;100537.97;;;28.69
48854;BMP280;34673;52.808;17.856;2023-08-24T11:23:28;100529.75;;;28.39
48854;BMP280;34673;52.808;17.856;2023-08-24T11:25:57;100524.66;;;28.36
48854;BMP280;34673;52.808;17.856;2023-08-24T11:28:27;100528.81;;;28.51
48854;BMP280;34673;52.808;17.856;2023-08-24T11:30:56;100522.25;;;28.66
48854;BMP280;34673;52.808;17.856;2023-08-24T11:33:34;100524.34;;;28.84
48854;BMP280;34673;52.808;17.856;2023-08-24T11:36:05;100519.13;;;28.93
48854;BMP280;34673;52.808;17.856;2023-08-24T11:38:42;100517.03;;;29.08
48854;BMP280;34673;52.808;17.856;2023-08-24T11:41:15;100520.81;;;29.27
48854;BMP280;34673;52.808;17.856;2023-08-24T11:43:44;100512.25;;;29.44
48854;BMP280;34673;52.808;17.856;2023-08-24T11:46:12;100503.91;;;29.58
48854;BMP280;34673;52.808;17.856;2023-08-24T11:48:40;100505.63;;;29.59
48854;BMP280;34673;52.808;17.856;2023-08-24T11:51:11;100501.72;;;29.64
48854;BMP280;34673;52.808;17.856;2023-08-24T11:53:45;100493.00;;;29.62
48854;BMP280;34673;52.808;17.856;2023-08-24T11:56:13;100486.03;;;29.49
48854;BMP280;34673;52.808;17.856;2023-08-24T11:58:41;100487.16;;;29.26
48854;BMP280;34673;52.808;17.856;2023-08-24T12:01:10;100492.34;;;29.06
48854;BMP280;34673;52.808;17.856;2023-08-24T12:03:39;100494.94;;;29.17
48854;BMP280;34673;52.808;17.856;2023-08-24T12:06:17;100488.78;;;29.38
48854;BMP280;34673;52.808;17.856;2023-08-24T12:08:47;100489.69;;;29.48
48854;BMP280;34673;52.808;17.856;2023-08-24T12:11:16;100493.25;;;29.58
48854;BMP280;34673;52.808;17.856;2023-08-24T12:13:54;100489.63;;;29.59
48854;BMP280;34673;52.808;17.856;2023-08-24T12:16:22;100482.84;;;29.55
48854;BMP280;34673;52.808;17.856;2023-08-24T12:18:57;100489.63;;;29.59
48854;BMP280;34673;52.808;17.856;2023-08-24T12:21:31;100477.00;;;29.62
48854;BMP280;34673;52.808;17.856;2023-08-24T12:26:27;100479.66;;;29.62
48854;BMP280;34673;52.808;17.856;2023-08-24T12:29:05;100476.78;;;29.65
48854;BMP280;34673;52.808;17.856;2023-08-24T12:31:33;100487.00;;;29.69
48854;BMP280;34673;52.808;17.856;2023-08-24T12:36:28;100473.13;;;29.66
48854;BMP280;34673;52.808;17.856;2023-08-24T12:38:55;100463.50;;;29.53
48854;BMP280;34673;52.808;17.856;2023-08-24T12:41:22;100469.06;;;29.50
48854;BMP280;34673;52.808;17.856;2023-08-24T12:43:50;100475.84;;;29.54
48854;BMP280;34673;52.808;17.856;2023-08-24T12:46:18;100465.16;;;29.54
48854;BMP280;34673;52.808;17.856;2023-08-24T12:48:46;100461.84;;;29.62
48854;BMP280;34673;52.808;17.856;2023-08-24T12:51:13;100464.41;;;29.64
48854;BMP280;34673;52.808;17.856;2023-08-24T12:53:40;100464.41;;;29.64
48854;BMP280;34673;52.808;17.856;2023-08-24T12:56:07;100452.84;;;29.53
48854;BMP280;34673;52.808;17.856;2023-08-24T12:58:35;100449.44;;;29.51
48854;BMP280;34673;52.808;17.856;2023-08-24T13:01:02;100444.13;;;29.51
48854;BMP280;34673;52.808;17.856;2023-08-24T13:03:30;100446.06;;;29.49
48854;BMP280;34673;52.808;17.856;2023-08-24T13:05:57;100446.59;;;29.43
48854;BMP280;34673;52.808;17.856;2023-08-24T13:08:39;100424.94;;;29.36
48854;BMP280;34673;52.808;17.856;2023-08-24T13:11:06;100442.38;;;29.41
48854;BMP280;34673;52.808;17.856;2023-08-24T13:13:34;100423.38;;;29.34
48854;BMP280;34673;52.808;17.856;2023-08-24T13:16:01;100430.88;;;29.40
48854;BMP280;34673;52.808;17.856;2023-08-24T13:18:29;100434.50;;;29.39
48854;BMP280;34673;52.808;17.856;2023-08-24T13:20:56;100431.38;;;29.34
48854;BMP280;34673;52.808;17.856;2023-08-24T13:23:23;100435.56;;;29.27
48854;BMP280;34673;52.808;17.856;2023-08-24T13:25:51;100431.91;;;29.28
48854;BMP280;34673;52.808;17.856;2023-08-24T13:28:18;100434.66;;;29.16
48854;BMP280;34673;52.808;17.856;2023-08-24T13:30:45;100426.47;;;29.08
48854;BMP280;34673;52.808;17.856;2023-08-24T13:33:12;100436.03;;;29.11
48854;BMP280;34673;52.808;17.856;2023-08-24T13:35:41;100440.25;;;29.13
48854;BMP280;34673;52.808;17.856;2023-08-24T13:38:08;100435.44;;;29.07
48854;BMP280;34673;52.808;17.856;2023-08-24T13:40:36;100426.84;;;29.04
48854;BMP280;34673;52.808;17.856;2023-08-24T13:43:03;100421.19;;;28.97
48854;BMP280;34673;52.808;17.856;2023-08-24T13:45:31;100416.81;;;28.96
48854;BMP280;34673;52.808;17.856;2023-08-24T13:48:02;100423.00;;;28.97
48854;BMP280;34673;52.808;17.856;2023-08-24T13:50:29;100413.72;;;28.91
48854;BMP280;34673;52.808;17.856;2023-08-24T13:52:56;100420.63;;;28.82
48854;BMP280;34673;52.808;17.856;2023-08-24T13:55:23;100415.03;;;28.64
48854;BMP280;34673;52.808;17.856;2023-08-24T13:57:51;100423.28;;;28.61
48854;BMP280;34673;52.808;17.856;2023-08-24T14:00:19;100416.50;;;28.57
48854;BMP280;34673;52.808;17.856;2023-08-24T14:02:46;100421.84;;;28.57
48854;BMP280;34673;52.808;17.856;2023-08-24T14:05:15;100420.47;;;28.63
48854;BMP280;34673;52.808;17.856;2023-08-24T14:07:43;100412.38;;;28.64